Time;durP1;ratioP1;P1;durP2;ratioP2;P2;SDS_P1;SDS_P2;PMS_P1;PMS_P2;Temp;Humidity;BMP_temperature;BMP_pressure;BME280_temperature;BME280_humidity;BME280_pressure;Samples;Min_cycle;Max_cycle;Signal;HPM_P1;HPM_P2
2023/06/07 00:00:05;;;;;;;;;18.33;18.00;;;;;;;;5062384;28;45294;-76
2023/06/07 00:02:31;;;;;;;;;20.00;18.67;;;;;;;;5061336;28;45390;-76
2023/06/07 00:04:56;;;;;;;;;19.00;18.00;;;;;;;;5061318;28;45370;-77
2023/06/07 00:07:22;;;;;;;;;21.00;20.00;;;;;;;;5060972;28;45322;-77
2023/06/07 00:09:47;;;;;;;;;19.67;19.67;;;;;;;;5060637;28;45263;-77
2023/06/07 00:12:12;;;;;;;;;20.33;18.33;;;;;;;;5061560;28;45303;-76
2023/06/07 00:14:38;;;;;;;;;17.67;17.67;;;;;;;;5061118;28;45286;-76
2023/06/07 00:17:03;;;;;;;;;18.00;16.67;;;;;;;;5061347;28;45287;-77
2023/06/07 00:19:29;;;;;;;;;21.67;20.33;;;;;;;;5061362;28;45308;-76
2023/06/07 00:21:55;;;;;;;;;23.00;21.67;;;;;;;;5045582;28;45362;-76
2023/06/07 00:24:21;;;;;;;;;26.67;25.33;;;;;;;;5039695;28;46254;-76
2023/06/07 00:26:46;;;;;;;;;20.67;20.67;;;;;;;;5039676;28;45295;-75
2023/06/07 00:29:13;;;;;;;;;21.00;18.67;;;;;;;;5048378;28;45273;-77
2023/06/07 00:31:38;;;;;;;;;19.00;18.67;;;;;;;;5061955;28;45456;-77
2023/06/07 00:34:03;;;;;;;;;22.67;22.00;;;;;;;;5060808;28;46096;-77
2023/06/07 00:36:29;;;;;;;;;20.00;19.33;;;;;;;;5061007;28;45438;-77
2023/06/07 00:38:54;;;;;;;;;22.33;20.67;;;;;;;;5060358;28;45421;-77
2023/06/07 00:41:20;;;;;;;;;22.00;22.00;;;;;;;;5060867;28;45342;-77
2023/06/07 00:43:46;;;;;;;;;20.00;19.33;;;;;;;;5060751;28;45531;-77
2023/06/07 00:46:13;;;;;;;;;22.00;19.67;;;;;;;;5060625;28;45307;-77
2023/06/07 00:48:39;;;;;;;;;19.67;18.33;;;;;;;;5060876;28;45325;-77
2023/06/07 00:51:04;;;;;;;;;20.33;18.00;;;;;;;;5061076;28;45540;-76
2023/06/07 00:53:30;;;;;;;;;20.00;20.00;;;;;;;;5061105;28;45312;-77
2023/06/07 00:55:56;;;;;;;;;21.00;19.00;;;;;;;;5060434;28;45327;-77
2023/06/07 00:58:22;;;;;;;;;24.33;22.33;;;;;;;;5060241;28;45455;-77
2023/06/07 01:00:48;;;;;;;;;20.00;20.00;;;;;;;;5060417;28;45342;-76
2023/06/07 01:03:14;;;;;;;;;22.33;22.00;;;;;;;;5060609;28;46113;-76
2023/06/07 01:05:39;;;;;;;;;20.00;20.00;;;;;;;;5060927;28;45299;-75
2023/06/07 01:08:04;;;;;;;;;23.00;22.00;;;;;;;;5061325;28;45260;-76
2023/06/07 01:10:30;;;;;;;;;19.33;19.33;;;;;;;;5060672;28;45320;-77
2023/06/07 01:12:56;;;;;;;;;18.00;17.00;;;;;;;;5060781;28;45969;-76
2023/06/07 01:15:23;;;;;;;;;20.33;20.00;;;;;;;;5060348;28;45350;-77
2023/06/07 01:17:48;;;;;;;;;18.33;17.33;;;;;;;;5060549;28;45353;-77
2023/06/07 01:20:17;;;;;;;;;21.67;18.67;;;;;;;;5060139;28;45594;-76
2023/06/07 01:22:44;;;;;;;;;24.33;21.67;;;;;;;;5060476;28;46297;-76
2023/06/07 01:25:10;;;;;;;;;24.67;23.67;;;;;;;;5062454;28;45403;-76
2023/06/07 01:27:37;;;;;;;;;24.33;22.67;;;;;;;;5061288;28;45747;-76
2023/06/07 01:30:02;;;;;;;;;24.00;21.33;;;;;;;;5059692;28;45621;-76
2023/06/07 01:32:28;;;;;;;;;24.00;20.67;;;;;;;;5060415;28;45337;-76
2023/06/07 01:34:53;;;;;;;;;20.67;20.67;;;;;;;;5061152;28;45337;-76
2023/06/07 01:37:20;;;;;;;;;26.00;22.67;;;;;;;;5060995;28;45331;-76
2023/06/07 01:39:45;;;;;;;;;19.67;19.67;;;;;;;;5061587;28;45165;-77
2023/06/07 01:42:11;;;;;;;;;25.33;21.67;;;;;;;;5061133;28;45273;-76
2023/06/07 01:44:38;;;;;;;;;21.67;21.67;;;;;;;;5060235;28;45223;-76
2023/06/07 01:47:04;;;;;;;;;22.00;19.67;;;;;;;;5059333;28;45405;-77
2023/06/07 01:49:30;;;;;;;;;24.33;23.67;;;;;;;;5060072;28;45366;-76
2023/06/07 01:51:55;;;;;;;;;27.00;25.67;;;;;;;;5059786;28;45295;-77
2023/06/07 01:54:20;;;;;;;;;22.00;21.33;;;;;;;;5060042;28;45324;-77
2023/06/07 01:57:03;;;;;;;;;24.00;23.33;;;;;;;;5059944;28;45378;-76
2023/06/07 01:59:36;;;;;;;;;23.00;21.33;;;;;;;;5059578;28;45343;-76
2023/06/07 02:02:12;;;;;;;;;22.00;20.00;;;;;;;;5060050;28;45296;-76
2023/06/07 02:04:48;;;;;;;;;25.33;25.00;;;;;;;;5060227;28;45291;-77
2023/06/07 02:07:17;;;;;;;;;24.67;23.33;;;;;;;;5060287;28;45322;-77
2023/06/07 02:09:44;;;;;;;;;27.67;26.33;;;;;;;;5061328;28;45490;-78
2023/06/07 02:12:10;;;;;;;;;23.00;21.67;;;;;;;;5059627;28;46215;-77
2023/06/07 02:14:36;;;;;;;;;22.00;21.67;;;;;;;;5059468;28;45283;-76
2023/06/07 02:17:01;;;;;;;;;25.67;25.33;;;;;;;;5059590;28;45250;-77
2023/06/07 02:19:26;;;;;;;;;21.67;21.00;;;;;;;;5060260;28;45263;-76
2023/06/07 02:21:51;;;;;;;;;23.00;22.67;;;;;;;;5059530;28;45262;-74
2023/06/07 02:24:17;;;;;;;;;24.33;23.00;;;;;;;;5059561;28;45297;-76
2023/06/07 02:26:42;;;;;;;;;27.67;24.00;;;;;;;;5059563;28;45275;-76
2023/06/07 02:29:08;;;;;;;;;26.00;24.67;;;;;;;;5057719;28;45474;-77
2023/06/07 02:31:34;;;;;;;;;24.00;21.00;;;;;;;;5059436;28;45398;-77
2023/06/07 02:33:59;;;;;;;;;22.00;21.00;;;;;;;;5059176;28;45406;-76
2023/06/07 02:36:25;;;;;;;;;25.67;25.00;;;;;;;;5059815;28;45331;-77
2023/06/07 02:38:50;;;;;;;;;24.33;23.33;;;;;;;;5059343;28;45488;-77
2023/06/07 02:41:15;;;;;;;;;23.67;22.67;;;;;;;;5059302;28;45495;-76
2023/06/07 02:43:44;;;;;;;;;26.00;23.33;;;;;;;;5059496;28;45294;-76
2023/06/07 02:46:11;;;;;;;;;25.00;23.50;;;;;;;;5059059;28;45326;-77
2023/06/07 02:48:36;;;;;;;;;23.33;23.33;;;;;;;;5060553;28;45469;-76
2023/06/07 02:51:01;;;;;;;;;27.00;23.00;;;;;;;;5062439;28;45167;-77
2023/06/07 02:53:27;;;;;;;;;23.33;21.33;;;;;;;;5062657;28;45292;-77
2023/06/07 02:55:52;;;;;;;;;25.33;23.67;;;;;;;;5062922;28;45231;-76
2023/06/07 02:58:18;;;;;;;;;22.00;20.00;;;;;;;;5062684;28;45253;-76
2023/06/07 03:00:46;;;;;;;;;26.33;23.33;;;;;;;;5062494;28;46374;-76
2023/06/07 03:03:11;;;;;;;;;21.33;21.33;;;;;;;;5062866;28;45330;-76
2023/06/07 03:05:37;;;;;;;;;22.33;19.00;;;;;;;;5062516;28;45389;-76
2023/06/07 03:08:02;;;;;;;;;24.00;21.00;;;;;;;;5063202;28;45575;-76
2023/06/07 03:10:27;;;;;;;;;24.67;24.00;;;;;;;;5062379;28;45338;-77
2023/06/07 03:12:52;;;;;;;;;22.67;22.00;;;;;;;;5062313;28;45506;-77
2023/06/07 03:15:18;;;;;;;;;26.67;26.67;;;;;;;;5062351;28;45413;-76
2023/06/07 03:17:43;;;;;;;;;23.67;23.33;;;;;;;;5062271;28;45493;-77
2023/06/07 03:20:09;;;;;;;;;22.33;21.67;;;;;;;;5062305;28;45928;-77
2023/06/07 03:22:38;;;;;;;;;24.67;23.00;;;;;;;;5062104;28;45338;-77
2023/06/07 03:25:04;;;;;;;;;23.67;23.00;;;;;;;;5062364;28;45210;-76
2023/06/07 03:27:32;;;;;;;;;25.67;23.67;;;;;;;;5061843;28;46224;-76
2023/06/07 03:29:57;;;;;;;;;24.00;22.33;;;;;;;;5061691;28;46164;-77
2023/06/07 03:32:22;;;;;;;;;26.00;25.00;;;;;;;;5061960;28;45302;-76
2023/06/07 03:34:48;;;;;;;;;26.33;25.67;;;;;;;;5062256;28;45441;-77
2023/06/07 03:37:13;;;;;;;;;26.67;26.00;;;;;;;;5061491;28;45355;-77
2023/06/07 03:39:38;;;;;;;;;24.33;22.67;;;;;;;;5061756;28;45356;-77
2023/06/07 03:42:03;;;;;;;;;25.67;24.00;;;;;;;;5061976;28;45476;-76
2023/06/07 03:44:29;;;;;;;;;27.00;23.67;;;;;;;;5061859;28;45350;-76
2023/06/07 03:46:54;;;;;;;;;24.00;23.00;;;;;;;;5061761;28;45394;-76
2023/06/07 03:49:19;;;;;;;;;29.33;25.67;;;;;;;;5061861;28;45467;-77
2023/06/07 03:51:44;;;;;;;;;24.00;23.33;;;;;;;;5060125;28;45215;-77
2023/06/07 03:54:10;;;;;;;;;30.67;28.67;;;;;;;;5061917;28;45326;-76
2023/06/07 03:56:35;;;;;;;;;29.00;27.67;;;;;;;;5062400;28;45315;-77
2023/06/07 03:59:01;;;;;;;;;28.33;27.00;;;;;;;;5060975;28;45283;-77
2023/06/07 04:01:26;;;;;;;;;25.50;24.00;;;;;;;;5060858;28;45338;-77
2023/06/07 04:03:52;;;;;;;;;25.00;23.67;;;;;;;;5061562;28;45186;-77
2023/06/07 04:06:20;;;;;;;;;24.67;24.67;;;;;;;;5061557;28;45294;-77
2023/06/07 04:08:46;;;;;;;;;30.67;28.00;;;;;;;;5061664;28;45980;-77
2023/06/07 04:11:11;;;;;;;;;27.00;26.00;;;;;;;;5061355;28;45313;-77
2023/06/07 04:13:36;;;;;;;;;28.33;25.33;;;;;;;;5061646;28;45324;-77
2023/06/07 04:16:01;;;;;;;;;24.00;22.33;;;;;;;;5061148;28;45253;-77
2023/06/07 04:18:26;;;;;;;;;25.67;24.67;;;;;;;;5061373;28;45297;-76
2023/06/07 04:20:51;;;;;;;;;26.67;25.33;;;;;;;;5061222;28;45320;-76
2023/06/07 04:23:17;;;;;;;;;27.33;27.33;;;;;;;;5061416;28;45273;-77
2023/06/07 04:25:42;;;;;;;;;26.67;25.00;;;;;;;;5061181;28;45318;-77
2023/06/07 04:28:10;;;;;;;;;29.33;27.00;;;;;;;;5061008;28;45424;-77
2023/06/07 04:30:36;;;;;;;;;26.67;25.33;;;;;;;;5060651;28;45268;-77
2023/06/07 04:33:08;;;;;;;;;26.67;26.67;;;;;;;;5061177;28;45373;-77
2023/06/07 04:35:33;;;;;;;;;21.33;21.33;;;;;;;;5060798;28;45497;-77
2023/06/07 04:38:03;;;;;;;;;28.67;27.33;;;;;;;;5060709;28;45500;-77
2023/06/07 04:40:31;;;;;;;;;26.00;24.00;;;;;;;;5060627;28;45236;-77
2023/06/07 04:43:05;;;;;;;;;24.67;24.00;;;;;;;;5061181;28;45284;-76
2023/06/07 04:45:31;;;;;;;;;27.67;27.00;;;;;;;;5060741;28;45319;-78
2023/06/07 04:47:58;;;;;;;;;28.67;26.33;;;;;;;;5060717;28;46461;-77
2023/06/07 04:50:23;;;;;;;;;26.67;24.00;;;;;;;;5060725;28;45343;-77
2023/06/07 04:52:49;;;;;;;;;28.00;25.33;;;;;;;;5063039;28;45339;-77
2023/06/07 04:55:14;;;;;;;;;30.00;27.00;;;;;;;;5061073;28;45295;-75
2023/06/07 04:57:40;;;;;;;;;49.00;38.67;;;;;;;;5064832;28;45449;-77
2023/06/07 05:00:07;;;;;;;;;44.33;37.00;;;;;;;;5062255;28;45244;-75
2023/06/07 05:02:38;;;;;;;;;69.75;59.75;;;;;;;;5066344;28;45178;-75
2023/06/07 05:05:04;;;;;;;;;59.00;45.00;;;;;;;;5068904;28;45436;-74
2023/06/07 05:07:32;;;;;;;;;47.33;39.67;;;;;;;;5061672;28;45188;-75
2023/06/07 05:09:57;;;;;;;;;32.67;29.33;;;;;;;;5050902;28;45414;-77
2023/06/07 05:12:23;;;;;;;;;28.33;27.00;;;;;;;;5053793;28;45374;-75
2023/06/07 05:14:48;;;;;;;;;30.67;29.00;;;;;;;;5061235;28;45423;-76
2023/06/07 05:17:18;;;;;;;;;26.67;26.00;;;;;;;;5061790;28;46317;-78
2023/06/07 05:19:44;;;;;;;;;28.67;26.67;;;;;;;;5060559;28;45284;-79
2023/06/07 05:22:09;;;;;;;;;28.00;25.00;;;;;;;;5060701;28;45317;-80
2023/06/07 05:24:34;;;;;;;;;24.00;22.67;;;;;;;;5060607;28;45257;-81
2023/06/07 05:26:59;;;;;;;;;28.67;25.33;;;;;;;;5060067;28;45338;-80
2023/06/07 05:29:25;;;;;;;;;30.67;29.00;;;;;;;;5060102;28;45306;-82
2023/06/07 05:31:50;;;;;;;;;32.67;27.67;;;;;;;;5059937;28;45328;-80
2023/06/07 05:34:16;;;;;;;;;31.33;29.33;;;;;;;;5060477;28;45371;-81
2023/06/07 05:36:42;;;;;;;;;28.67;26.33;;;;;;;;5059788;28;45296;-81
2023/06/07 05:39:07;;;;;;;;;30.67;28.00;;;;;;;;5059872;28;45385;-80
2023/06/07 05:41:32;;;;;;;;;26.00;24.67;;;;;;;;5060252;28;45134;-79
2023/06/07 05:43:57;;;;;;;;;30.33;28.33;;;;;;;;5058375;28;45613;-78
2023/06/07 05:46:23;;;;;;;;;27.67;26.00;;;;;;;;5059840;28;46279;-78
2023/06/07 05:48:48;;;;;;;;;28.67;28.00;;;;;;;;5059964;28;45280;-78
2023/06/07 05:51:14;;;;;;;;;31.33;28.67;;;;;;;;5051118;28;45363;-79
2023/06/07 05:53:39;;;;;;;;;29.67;28.33;;;;;;;;5039640;28;45273;-80
2023/06/07 05:56:04;;;;;;;;;27.00;27.00;;;;;;;;5057883;28;45799;-78
2023/06/07 05:58:31;;;;;;;;;29.67;27.33;;;;;;;;5059813;28;45377;-78
2023/06/07 06:00:56;;;;;;;;;60.25;46.75;;;;;;;;5059842;28;45292;-77
2023/06/07 06:03:21;;;;;;;;;31.33;28.00;;;;;;;;5059606;28;45360;-77
2023/06/07 06:05:46;;;;;;;;;27.33;26.33;;;;;;;;5049127;28;46059;-77
2023/06/07 06:08:13;;;;;;;;;28.33;25.00;;;;;;;;5039620;28;45279;-78
2023/06/07 06:10:38;;;;;;;;;29.00;24.00;;;;;;;;5039719;28;45368;-77
2023/06/07 06:13:03;;;;;;;;;32.67;29.00;;;;;;;;5047093;28;45290;-75
2023/06/07 06:15:29;;;;;;;;;31.00;27.00;;;;;;;;5059605;28;45374;-76
2023/06/07 06:17:54;;;;;;;;;30.33;28.00;;;;;;;;5059888;28;45332;-77
2023/06/07 06:20:20;;;;;;;;;29.33;28.00;;;;;;;;5059837;28;45285;-76
2023/06/07 06:22:45;;;;;;;;;34.00;30.00;;;;;;;;5059971;28;45235;-77
2023/06/07 06:25:12;;;;;;;;;56.25;44.75;;;;;;;;5061663;28;47127;-76
2023/06/07 06:27:37;;;;;;;;;66.50;57.00;;;;;;;;5063130;28;45153;-76
2023/06/07 06:30:02;;;;;;;;;52.00;41.75;;;;;;;;5062447;28;45532;-76
2023/06/07 06:32:28;;;;;;;;;48.67;38.00;;;;;;;;5061206;28;46394;-77
2023/06/07 06:34:53;;;;;;;;;56.75;44.50;;;;;;;;5061285;28;45362;-78
2023/06/07 06:37:18;;;;;;;;;63.00;49.75;;;;;;;;5063090;28;45310;-78
2023/06/07 06:39:43;;;;;;;;;65.00;49.75;;;;;;;;5060976;28;45290;-78
2023/06/07 06:42:08;;;;;;;;;54.00;42.50;;;;;;;;5046542;28;45574;-76
2023/06/07 06:44:33;;;;;;;;;39.00;34.33;;;;;;;;5042791;28;46308;-79
2023/06/07 06:47:00;;;;;;;;;48.67;40.00;;;;;;;;5042602;28;45394;-80
2023/06/07 06:49:25;;;;;;;;;28.33;27.00;;;;;;;;5043256;28;45378;-78
2023/06/07 06:51:51;;;;;;;;;59.25;46.25;;;;;;;;5043053;28;45482;-79
2023/06/07 06:54:16;;;;;;;;;61.25;47.75;;;;;;;;5043331;28;45883;-80
2023/06/07 06:56:42;;;;;;;;;36.00;33.00;;;;;;;;5049644;28;45358;-78
2023/06/07 06:59:07;;;;;;;;;25.67;23.33;;;;;;;;5062786;28;45346;-78
2023/06/07 07:01:48;;;;;;;;;31.67;29.33;;;;;;;;5062686;28;45465;-78
2023/06/07 07:04:13;;;;;;;;;29.00;27.33;;;;;;;;5062639;28;45271;-78
2023/06/07 07:06:40;;;;;;;;;25.00;24.00;;;;;;;;5062319;28;45534;-80
2023/06/07 07:09:05;;;;;;;;;30.00;26.00;;;;;;;;5062660;28;45380;-78
2023/06/07 07:11:30;;;;;;;;;28.33;25.33;;;;;;;;5059030;28;45432;-79
2023/06/07 07:13:56;;;;;;;;;45.33;37.00;;;;;;;;5061453;28;45308;-76
2023/06/07 07:16:21;;;;;;;;;53.25;43.75;;;;;;;;5062096;28;45331;-78
2023/06/07 07:18:46;;;;;;;;;46.67;37.33;;;;;;;;5061780;28;45464;-79
2023/06/07 07:21:11;;;;;;;;;26.00;25.00;;;;;;;;5062027;28;45548;-77
2023/06/07 07:23:36;;;;;;;;;39.67;32.67;;;;;;;;5062124;28;45597;-77
2023/06/07 07:26:02;;;;;;;;;26.00;25.00;;;;;;;;5058490;28;45407;-77
2023/06/07 07:28:28;;;;;;;;;50.67;40.67;;;;;;;;5062135;28;45369;-76
2023/06/07 07:30:53;;;;;;;;;42.67;36.00;;;;;;;;5061546;28;45312;-76
2023/06/07 07:33:18;;;;;;;;;48.67;39.00;;;;;;;;5061999;28;45989;-77
2023/06/07 07:35:43;;;;;;;;;35.00;29.33;;;;;;;;5061682;28;45379;-76
2023/06/07 07:38:09;;;;;;;;;33.67;29.00;;;;;;;;5060230;28;45406;-77
2023/06/07 07:40:34;;;;;;;;;52.50;42.50;;;;;;;;5060668;28;45485;-76
2023/06/07 07:43:00;;;;;;;;;51.50;40.50;;;;;;;;5060138;28;46511;-77
2023/06/07 07:45:26;;;;;;;;;51.00;41.75;;;;;;;;5061063;28;45214;-76
2023/06/07 07:47:51;;;;;;;;;53.25;43.50;;;;;;;;5061763;28;45176;-77
2023/06/07 07:50:16;;;;;;;;;41.00;34.00;;;;;;;;5061324;28;45186;-77
2023/06/07 07:52:41;;;;;;;;;22.67;22.67;;;;;;;;5061686;28;46042;-75
2023/06/07 07:55:07;;;;;;;;;29.00;27.67;;;;;;;;5061699;28;45259;-76
2023/06/07 07:57:32;;;;;;;;;27.67;26.67;;;;;;;;5061755;28;45216;-76
2023/06/07 07:59:57;;;;;;;;;20.67;20.67;;;;;;;;5061297;28;45208;-78
2023/06/07 08:02:23;;;;;;;;;25.00;25.00;;;;;;;;5061471;28;45241;-78
2023/06/07 08:04:48;;;;;;;;;24.33;23.67;;;;;;;;5061539;28;45271;-77
2023/06/07 08:07:15;;;;;;;;;32.67;29.67;;;;;;;;5061466;28;45216;-78
2023/06/07 08:09:40;;;;;;;;;45.33;37.67;;;;;;;;5061363;28;45320;-78
2023/06/07 08:12:06;;;;;;;;;49.00;41.00;;;;;;;;5061201;28;45334;-78
2023/06/07 08:14:31;;;;;;;;;22.67;21.33;;;;;;;;5061427;28;45386;-77
2023/06/07 08:16:56;;;;;;;;;27.00;26.67;;;;;;;;5062349;28;45358;-78
2023/06/07 08:19:21;;;;;;;;;45.67;38.33;;;;;;;;5061605;28;45553;-79
2023/06/07 08:21:47;;;;;;;;;46.67;37.00;;;;;;;;5061257;28;46192;-78
2023/06/07 08:24:12;;;;;;;;;30.33;28.00;;;;;;;;5061649;28;45370;-79
2023/06/07 08:26:38;;;;;;;;;23.33;22.33;;;;;;;;5061495;28;45292;-78
2023/06/07 08:29:03;;;;;;;;;46.33;39.00;;;;;;;;5060964;28;45328;-79
2023/06/07 08:31:28;;;;;;;;;24.00;23.33;;;;;;;;5061531;28;45719;-78
2023/06/07 08:33:54;;;;;;;;;65.25;53.25;;;;;;;;5061697;28;45309;-79
2023/06/07 08:36:19;;;;;;;;;55.75;44.75;;;;;;;;5061267;28;45305;-80
2023/06/07 08:38:45;;;;;;;;;48.25;40.50;;;;;;;;5060586;28;45252;-79
2023/06/07 08:41:10;;;;;;;;;27.00;26.00;;;;;;;;5060878;28;45924;-78
2023/06/07 08:43:37;;;;;;;;;20.67;20.67;;;;;;;;5061127;28;45338;-78
2023/06/07 08:46:05;;;;;;;;;33.67;29.00;;;;;;;;5060716;28;45503;-77
2023/06/07 08:48:32;;;;;;;;;52.50;40.50;;;;;;;;5060798;28;45468;-79
2023/06/07 08:51:00;;;;;;;;;58.25;44.25;;;;;;;;5061030;28;45447;-80
2023/06/07 08:53:26;;;;;;;;;56.25;45.00;;;;;;;;5060768;28;45290;-78
2023/06/07 08:55:53;;;;;;;;;77.50;69.75;;;;;;;;5060739;28;45362;-78
2023/06/07 08:58:18;;;;;;;;;73.00;64.00;;;;;;;;5060720;28;45216;-81
2023/06/07 09:00:43;;;;;;;;;43.00;34.00;;;;;;;;5059826;28;45351;-79
2023/06/07 09:03:11;;;;;;;;;60.75;47.25;;;;;;;;5059631;28;45601;-78
2023/06/07 09:05:36;;;;;;;;;49.50;40.00;;;;;;;;5060059;28;45342;-79
2023/06/07 09:08:02;;;;;;;;;38.33;32.33;;;;;;;;5060301;28;45472;-78
2023/06/07 09:10:28;;;;;;;;;28.00;26.33;;;;;;;;5060468;28;46499;-78
2023/06/07 09:12:53;;;;;;;;;44.33;37.33;;;;;;;;5059737;28;45426;-79
2023/06/07 09:15:19;;;;;;;;;27.00;26.00;;;;;;;;5060516;28;45546;-79
2023/06/07 09:18:04;;;;;;;;;66.50;58.25;;;;;;;;5058796;28;45798;-80
2023/06/07 09:20:31;;;;;;;;;25.33;25.33;;;;;;;;5059887;28;45334;-79
2023/06/07 09:23:19;;;;;;;;;23.67;23.67;;;;;;;;5055972;28;45392;-80
2023/06/07 09:25:45;;;;;;;;;28.00;27.00;;;;;;;;5044001;28;45391;-79
2023/06/07 09:28:12;;;;;;;;;23.67;22.00;;;;;;;;5040184;28;45363;-80
2023/06/07 09:30:56;;;;;;;;;24.33;23.00;;;;;;;;5055857;28;45414;-80
2023/06/07 09:33:30;;;;;;;;;62.25;51.25;;;;;;;;5058906;28;45346;-81
2023/06/07 09:36:01;;;;;;;;;27.00;25.00;;;;;;;;5055277;28;45450;-80
2023/06/07 09:38:27;;;;;;;;;21.00;21.00;;;;;;;;5059378;28;45540;-81
2023/06/07 09:40:53;;;;;;;;;22.67;22.67;;;;;;;;5056547;28;47018;-80
2023/06/07 10:06:57;;;;;;;;;19.67;18.67;;;;;;;;5077206;28;72776;-80
2023/06/07 10:09:25;;;;;;;;;18.00;18.00;;;;;;;;5080131;28;45299;-79
2023/06/07 10:11:53;;;;;;;;;16.67;16.67;;;;;;;;5080184;28;45340;-81
2023/06/07 10:14:19;;;;;;;;;19.33;19.33;;;;;;;;5079623;28;45556;-80
2023/06/07 10:16:48;;;;;;;;;19.33;19.33;;;;;;;;5079885;28;45400;-80
2023/06/07 10:19:27;;;;;;;;;22.33;22.00;;;;;;;;5080205;28;45349;-78
2023/06/07 10:21:53;;;;;;;;;31.67;28.33;;;;;;;;5080056;28;45352;-79
2023/06/07 10:24:28;;;;;;;;;23.00;22.33;;;;;;;;5079682;28;45349;-79
2023/06/07 10:26:55;;;;;;;;;24.33;24.33;;;;;;;;5079623;28;45268;-78
2023/06/07 10:29:28;;;;;;;;;77.00;67.75;;;;;;;;5070747;28;45266;-79
2023/06/07 10:32:04;;;;;;;;;24.33;23.67;;;;;;;;5056127;28;45482;-79
2023/06/07 10:34:30;;;;;;;;;19.33;19.33;;;;;;;;5050640;28;45526;-79
2023/06/07 10:36:56;;;;;;;;;25.33;25.33;;;;;;;;5057593;28;45438;-79
2023/06/07 10:39:21;;;;;;;;;21.00;21.00;;;;;;;;5062568;28;45650;-77
2023/06/07 10:41:47;;;;;;;;;19.67;19.33;;;;;;;;5062705;28;45442;-76
2023/06/07 10:44:13;;;;;;;;;21.67;20.33;;;;;;;;5060554;28;45895;-78
2023/06/07 10:46:38;;;;;;;;;19.33;19.33;;;;;;;;5047408;28;45138;-79
2023/06/07 10:49:04;;;;;;;;;20.33;20.33;;;;;;;;5056818;28;45275;-79
2023/06/07 10:51:59;;;;;;;;;35.67;31.33;;;;;;;;5057904;28;45595;-75
2023/06/07 10:54:27;;;;;;;;;27.00;25.00;;;;;;;;5054119;28;45377;-78
2023/06/07 10:56:52;;;;;;;;;23.67;23.67;;;;;;;;5058072;28;45404;-79
2023/06/07 10:59:22;;;;;;;;;64.75;51.75;;;;;;;;5059498;28;45277;-80
2023/06/07 11:01:49;;;;;;;;;83.75;81.25;;;;;;;;5058707;28;45519;-78
2023/06/07 11:04:43;;;;;;;;;33.00;29.67;;;;;;;;5058026;28;46045;-79
2023/06/07 11:07:20;;;;;;;;;22.33;22.00;;;;;;;;5052796;28;45347;-78
2023/06/07 11:09:48;;;;;;;;;26.67;26.33;;;;;;;;5060828;28;45338;-79
2023/06/07 11:12:32;;;;;;;;;64.00;54.00;;;;;;;;5062672;28;45376;-81
2023/06/07 11:15:15;;;;;;;;;19.33;18.67;;;;;;;;5062778;28;45406;-79
2023/06/07 11:17:59;;;;;;;;;23.00;23.00;;;;;;;;5060972;28;45384;-81
2023/06/07 11:20:40;;;;;;;;;18.00;18.00;;;;;;;;5046078;28;45346;-78
2023/06/07 11:23:24;;;;;;;;;29.33;25.67;;;;;;;;5042624;28;45407;-80
2023/06/07 11:25:51;;;;;;;;;20.00;18.00;;;;;;;;5043056;28;45654;-80
2023/06/07 11:28:20;;;;;;;;;47.00;38.67;;;;;;;;5044249;28;45304;-79
2023/06/07 11:30:46;;;;;;;;;19.00;19.00;;;;;;;;5045308;28;45410;-77
2023/06/07 11:33:15;;;;;;;;;22.67;22.67;;;;;;;;5041492;28;46454;-79
2023/06/07 11:35:40;;;;;;;;;47.33;38.00;;;;;;;;5041930;28;46188;-80
2023/06/07 11:38:06;;;;;;;;;47.00;37.67;;;;;;;;5039847;28;45339;-78
2023/06/07 11:40:31;;;;;;;;;48.33;40.00;;;;;;;;5060172;28;45221;-76
2023/06/07 11:42:56;;;;;;;;;33.33;31.00;;;;;;;;5060961;28;45228;-77
2023/06/07 11:45:21;;;;;;;;;50.25;42.00;;;;;;;;5061327;28;45356;-78
2023/06/07 11:47:47;;;;;;;;;28.00;26.33;;;;;;;;5058028;28;45597;-79
2023/06/07 11:50:13;;;;;;;;;37.67;32.33;;;;;;;;5061360;28;45264;-80
2023/06/07 11:52:39;;;;;;;;;29.33;26.00;;;;;;;;5061055;28;45271;-79
2023/06/07 11:55:04;;;;;;;;;20.33;19.33;;;;;;;;5060306;28;48504;-80
2023/06/07 11:57:32;;;;;;;;;45.00;36.67;;;;;;;;5060938;28;45473;-80
2023/06/07 11:59:57;;;;;;;;;51.00;42.25;;;;;;;;5059627;28;45398;-78
2023/06/07 12:02:22;;;;;;;;;19.67;19.67;;;;;;;;5060582;28;45468;-82
2023/06/07 12:04:47;;;;;;;;;19.33;19.00;;;;;;;;5062577;28;45629;-78
2023/06/07 12:07:16;;;;;;;;;46.00;37.33;;;;;;;;5061862;28;45296;-79
2023/06/07 12:09:41;;;;;;;;;48.50;40.00;;;;;;;;5060282;28;45267;-80
2023/06/07 12:12:14;;;;;;;;;47.33;39.33;;;;;;;;5062619;28;45589;-77
2023/06/07 12:14:40;;;;;;;;;19.67;18.67;;;;;;;;5061606;28;45531;-77
2023/06/07 12:17:05;;;;;;;;;19.33;18.33;;;;;;;;5060948;28;45333;-79
2023/06/07 12:19:30;;;;;;;;;22.00;22.00;;;;;;;;5065487;28;45279;-77
2023/06/07 12:22:06;;;;;;;;;48.75;39.50;;;;;;;;5058995;28;46728;-79
2023/06/07 12:24:36;;;;;;;;;37.00;31.67;;;;;;;;5060241;28;47275;-76
2023/06/07 12:27:03;;;;;;;;;19.33;18.00;;;;;;;;5063206;28;45461;-77
2023/06/07 12:29:29;;;;;;;;;17.00;17.00;;;;;;;;5060386;28;45366;-79
2023/06/07 12:31:55;;;;;;;;;22.00;22.00;;;;;;;;5061135;28;45324;-80
2023/06/07 12:34:26;;;;;;;;;42.33;35.00;;;;;;;;5059310;28;45376;-80
2023/06/07 12:36:51;;;;;;;;;31.67;28.00;;;;;;;;5062042;28;45355;-78
2023/06/07 12:39:18;;;;;;;;;45.00;36.67;;;;;;;;5062682;28;45410;-78
2023/06/07 12:41:43;;;;;;;;;42.33;36.00;;;;;;;;5062076;28;45403;-77
2023/06/07 12:44:09;;;;;;;;;26.33;25.33;;;;;;;;5060959;28;45362;-76
2023/06/07 12:46:34;;;;;;;;;17.67;17.33;;;;;;;;5060509;28;45373;-78
2023/06/07 12:48:59;;;;;;;;;14.67;14.67;;;;;;;;5063334;28;45330;-78
2023/06/07 12:51:25;;;;;;;;;20.00;20.00;;;;;;;;5060891;28;45228;-78
2023/06/07 12:53:51;;;;;;;;;18.00;18.00;;;;;;;;5059591;28;46132;-80
2023/06/07 12:56:17;;;;;;;;;18.67;17.00;;;;;;;;5060281;28;45385;-80
2023/06/07 12:58:42;;;;;;;;;40.33;33.67;;;;;;;;5057182;28;45236;-80
2023/06/07 13:01:07;;;;;;;;;28.67;26.67;;;;;;;;5060482;28;45587;-82
2023/06/07 13:03:32;;;;;;;;;18.00;17.00;;;;;;;;5060436;28;46359;-81
2023/06/07 13:05:58;;;;;;;;;57.50;45.50;;;;;;;;5040057;28;45600;-81
2023/06/07 13:08:23;;;;;;;;;29.00;27.67;;;;;;;;5039799;28;45308;-81
2023/06/07 13:10:48;;;;;;;;;22.33;22.00;;;;;;;;5055386;28;45280;-81
2023/06/07 13:13:14;;;;;;;;;76.75;71.25;;;;;;;;5060273;28;46425;-80
2023/06/07 13:15:39;;;;;;;;;68.00;58.25;;;;;;;;5059898;28;45682;-80
2023/06/07 13:18:05;;;;;;;;;40.33;34.67;;;;;;;;5059209;28;45509;-80
2023/06/07 13:20:30;;;;;;;;;19.67;19.33;;;;;;;;5059551;28;45410;-78
2023/06/07 13:22:55;;;;;;;;;21.67;21.33;;;;;;;;5060478;28;46359;-79
2023/06/07 13:25:20;;;;;;;;;19.67;18.33;;;;;;;;5063351;28;45466;-76
2023/06/07 13:27:47;;;;;;;;;17.67;17.67;;;;;;;;5062831;28;45274;-75
2023/06/07 13:30:12;;;;;;;;;18.00;18.00;;;;;;;;5060599;28;45285;-76
2023/06/07 13:32:37;;;;;;;;;13.00;13.00;;;;;;;;5060812;28;45581;-75
2023/06/07 13:35:03;;;;;;;;;17.67;16.67;;;;;;;;5065468;28;45363;-76
2023/06/07 13:37:28;;;;;;;;;20.00;20.00;;;;;;;;5070755;28;45508;-75
2023/06/07 13:39:53;;;;;;;;;40.33;33.67;;;;;;;;5065727;28;45627;-75
2023/06/07 13:42:21;;;;;;;;;19.67;19.67;;;;;;;;5070581;28;45227;-75
2023/06/07 13:44:47;;;;;;;;;22.00;19.67;;;;;;;;5070934;28;45307;-76
2023/06/07 13:47:12;;;;;;;;;18.00;18.00;;;;;;;;5067422;28;45334;-76
2023/06/07 13:49:37;;;;;;;;;15.67;15.67;;;;;;;;5070684;28;45220;-77
2023/06/07 13:52:03;;;;;;;;;18.00;18.00;;;;;;;;5064608;28;45246;-76
2023/06/07 13:54:31;;;;;;;;;15.67;15.67;;;;;;;;5065963;28;45257;-76
2023/06/07 13:56:56;;;;;;;;;15.00;15.00;;;;;;;;5065485;28;45357;-77
2023/06/07 13:59:22;;;;;;;;;16.33;15.67;;;;;;;;5063142;28;45499;-77
2023/06/07 14:01:47;;;;;;;;;35.00;29.67;;;;;;;;5068022;28;45697;-75
2023/06/07 14:04:12;;;;;;;;;18.67;18.67;;;;;;;;5068464;28;45315;-76
2023/06/07 14:06:38;;;;;;;;;26.00;23.33;;;;;;;;5068162;28;45390;-77
2023/06/07 14:09:04;;;;;;;;;18.00;18.00;;;;;;;;5064779;28;45314;-77
2023/06/07 14:11:30;;;;;;;;;19.00;19.00;;;;;;;;5063766;28;45511;-75
2023/06/07 14:13:56;;;;;;;;;18.67;18.00;;;;;;;;5060095;28;45385;-75
2023/06/07 14:16:21;;;;;;;;;17.33;17.33;;;;;;;;5061291;28;45324;-77
2023/06/07 14:18:47;;;;;;;;;14.67;14.67;;;;;;;;5061843;28;45422;-75
2023/06/07 14:21:13;;;;;;;;;19.00;19.00;;;;;;;;5060877;28;45915;-76
2023/06/07 14:23:38;;;;;;;;;18.33;17.67;;;;;;;;5061584;28;45264;-78
2023/06/07 14:26:03;;;;;;;;;16.33;16.33;;;;;;;;5063422;28;45243;-75
2023/06/07 14:28:28;;;;;;;;;14.67;14.33;;;;;;;;5064176;28;45398;-77
2023/06/07 14:30:53;;;;;;;;;23.67;23.67;;;;;;;;5064732;28;46166;-76
2023/06/07 14:33:18;;;;;;;;;35.00;31.33;;;;;;;;5065067;28;45380;-77
2023/06/07 14:35:44;;;;;;;;;43.33;36.33;;;;;;;;5060818;28;45126;-77